• Join FlightAware (Why Join?)
  • Login
  • US Flag 
06:22AM EDT


 

Airport Tracker/Info


-or-


 

Live Flight TrackerFlight Track Log ✈ QLK106D ✈ 27-May-2013 ✈ YSSY / SYD - YCFS

Flight Track Log - Related Links

Times and Time Zones

All times are in EDT time to prevent confusion due to time zone crossing. See the QLK106D flight status page for this flight to view local times or setup timezone preferences in your user account.

Time Position Orientation Groundspeed Altitude Reporting Facility
EDT Latitude Longitude Course Direction KTS MPH feet Rate Location/Type
06:58PM -33.9780 151.1962 117° Southeast 144 166 800  Level Aus ATC (RADAR)
06:58PM -33.9901 151.2243 117° Southeast 175 201 2,000 1,680 Climbing Aus ATC (RADAR)
06:59PM -33.9913 151.2807 91° East 224 258 3,100 1,740 Climbing Aus ATC (RADAR)
06:59PM -33.9948 151.3263 95° East 235 270 4,400 2,460 Climbing Aus ATC (RADAR)
07:00PM -33.9595 151.3672 44° Northeast 245 282 6,400 3,000 Climbing Aus ATC (RADAR)
07:01PM -33.9339 151.3734 11° North 221 254 7,900 2,520 Climbing Aus ATC (RADAR)
07:02PM -33.8608 151.3834 North 223 257 10,400 1,800 Climbing Aus ATC (RADAR)
07:02PM -33.8276 151.3934 14° North 245 282 10,900 1,260 Climbing Aus ATC (RADAR)
07:03PM -33.7987 151.4066 21° North 260 299 11,600 1,680 Climbing Aus ATC (RADAR)
07:03PM -33.7569 151.4257 21° North 272 313 12,600 1,620 Climbing Aus ATC (RADAR)
07:04PM -33.7018 151.4499 20° North 279 321 13,800 1,680 Climbing Aus ATC (RADAR)
07:05PM -33.6585 151.4687 20° North 279 321 14,900 1,620 Climbing Aus ATC (RADAR)
07:05PM -33.6027 151.4926 20° North 283 326 16,000 1,560 Climbing Aus ATC (RADAR)
07:06PM -33.5713 151.5058 19° North 285 328 16,700 1,440 Climbing Aus ATC (RADAR)
07:07PM -33.4640 151.5512 19° North 288 331 18,700 1,320 Climbing Aus ATC (RADAR)
07:08PM -33.4323 151.5649 20° North 289 333 19,200 1,380 Climbing Aus ATC (RADAR)
07:08PM -33.3874 151.5840 20° North 291 335 20,100 1,500 Climbing Aus ATC (RADAR)
07:09PM -33.3274 151.6091 19° North 284 327 21,300 1,440 Climbing Aus ATC (RADAR)
07:10PM -33.2831 151.6278 19° North 273 314 22,200 1,320 Climbing Aus ATC (RADAR)
07:10PM -33.2286 151.6505 19° North 273 314 23,100 1,200 Climbing Aus ATC (RADAR)
07:11PM -33.1987 151.6630 19° North 272 313 23,600 1,140 Climbing Aus ATC (RADAR)
07:12PM -33.1052 151.7021 19° North 271 312 25,100 1,020 Climbing Aus ATC (RADAR)
07:13PM -33.0741 151.7153 20° North 267 307 25,400 300 Climbing Aus ATC (RADAR)
07:13PM -33.0437 151.7284 20° North 272 313 25,400  Level Aus ATC (RADAR)
07:14PM -32.9983 151.7476 20° North 294 338 25,400  Level Aus ATC (RADAR)
07:14PM -32.9291 151.7770 20° North 320 368 25,400  Level Aus ATC (RADAR)
07:15PM -32.8776 151.7983 19° North 334 384 25,400  Level Aus ATC (RADAR)
07:16PM -32.7931 151.8347 20° North 356 410 25,400  Level Aus ATC (RADAR)
07:16PM -32.7710 151.8497 30° Northeast 363 418 25,400  Level Aus ATC (RADAR)
07:17PM -32.6600 151.9401 34° Northeast 369 425 25,400  Level Aus ATC (RADAR)
07:18PM -32.6237 151.9684 33° Northeast 370 426 25,400  Level Aus ATC (RADAR)
07:18PM -32.5690 152.0102 33° Northeast 376 433 25,400  Level Aus ATC (RADAR)
07:19PM -32.4975 152.0636 32° Northeast 376 433 25,400  Level Aus ATC (RADAR)
07:20PM -32.4423 152.1060 33° Northeast 383 441 25,400  Level Aus ATC (RADAR)
07:21PM -32.3713 152.1603 33° Northeast 377 434 25,400  Level Aus ATC (RADAR)
07:21PM -32.3310 152.1913 33° Northeast 381 438 25,400  Level Aus ATC (RADAR)
07:23PM -32.2039 152.2887 33° Northeast 386 444 25,400  Level Aus ATC (RADAR)
07:23PM -32.1618 152.3203 32° Northeast 381 438 25,400  Level Aus ATC (RADAR)
07:24PM -32.1091 152.3601 33° Northeast 380 437 25,400  Level Aus ATC (RADAR)
07:24PM -32.0413 152.4114 33° Northeast 382 440 25,400  Level Aus ATC (RADAR)
07:25PM -31.9858 152.4537 33° Northeast 387 445 25,400  Level Aus ATC (RADAR)
07:26PM -31.9179 152.5048 33° Northeast 386 444 25,400  Level Aus ATC (RADAR)
07:26PM -31.8755 152.5367 33° Northeast 381 438 25,400 -840 Level Aus ATC (RADAR)
07:28PM -31.7489 152.6357 34° Northeast 369 425 23,900 -1,080 Descending Aus ATC (RADAR)
07:28PM -31.7190 152.6556 29° Northeast 370 426 23,500 -1,380 Descending Aus ATC (RADAR)
07:28PM -31.6677 152.6926 32° Northeast 371 427 22,700 -1,380 Descending Aus ATC (RADAR)
07:29PM -31.6015 152.7424 33° Northeast 376 433 21,700 -1,320 Descending Aus ATC (RADAR)
07:30PM -31.5500 152.7810 33° Northeast 376 433 21,000 -1,320 Descending Aus ATC (RADAR)
07:31PM -31.4187 152.8746 31° Northeast 366 421 19,000 -1,320 Descending Aus ATC (RADAR)
07:32PM -31.3164 152.8941 North 370 426 17,700 -1,320 Descending Aus ATC (RADAR)
07:33PM -31.2574 152.9069 10° North 370 426 17,000 -1,260 Descending Aus ATC (RADAR)
07:33PM -31.2194 152.9158 11° North 364 419 16,500 -1,380 Descending Aus ATC (RADAR)
07:34PM -31.1626 152.9298 12° North 354 407 15,700 -1,260 Descending Aus ATC (RADAR)
07:35PM -31.0867 152.9472 11° North 354 407 14,800 -1,260 Descending Aus ATC (RADAR)
07:35PM -31.0303 152.9597 11° North 354 407 14,000 -1,740 Descending Aus ATC (RADAR)
07:36PM -30.9516 152.9788 12° North 348 400 12,400 -1,920 Descending Aus ATC (RADAR)
07:36PM -30.9126 152.9876 11° North 345 397 11,600 -2,040 Descending Aus ATC (RADAR)
07:38PM -30.8085 153.0105 11° North 322 371 9,200 -1,860 Descending Aus ATC (RADAR)
07:38PM -30.7864 153.0145 North 320 368 9,000 -1,320 Descending Aus ATC (RADAR)
07:38PM -30.7405 153.0246 11° North 299 344 8,100 -1,560 Descending Aus ATC (RADAR)
07:39PM -30.6807 153.0309 North 264 304 6,800 -1,560 Descending Aus ATC (RADAR)
07:40PM -30.6447 153.0280 356° North 269 310 6,100 -1,500 Descending Aus ATC (RADAR)
07:42PM -30.4016 153.0943 13° North -3,000 Descending Aus ATC (Calculated)
07:44PM -30.3206 153.1164 12° North  Level Estimated
07:45PM -30.3206 153.1164 North  Level Estimated
07:46PM -30.3206 153.1164 North  Level Estimated